createdAt,value
2019-03-27T00:01:26.210Z,10.67
2019-03-27T00:04:15.103Z,11.77
2019-03-27T00:07:03.218Z,11.67
2019-03-27T00:09:52.344Z,12.60
2019-03-27T00:12:41.322Z,13.30
2019-03-27T00:15:30.015Z,12.33
2019-03-27T00:18:10.880Z,10.63
2019-03-27T00:20:52.187Z,11.30
2019-03-27T00:23:33.350Z,10.27
2019-03-27T00:26:14.749Z,12.07
2019-03-27T00:28:55.931Z,11.77
2019-03-27T00:31:37.375Z,11.50
2019-03-27T00:34:18.460Z,11.97
2019-03-27T00:36:59.504Z,10.50
2019-03-27T00:39:40.871Z,11.90
2019-03-27T00:42:22.351Z,11.30
2019-03-27T00:45:03.694Z,12.77
2019-03-27T00:47:44.753Z,10.67
2019-03-27T00:50:14.859Z,12.80
2019-03-27T00:53:03.531Z,10.10
2019-03-27T00:55:52.457Z,10.63
2019-03-27T00:58:22.406Z,11.97
2019-03-27T01:04:26.615Z,12.60
2019-03-27T01:07:15.442Z,12.20
2019-03-27T01:10:04.412Z,12.90
2019-03-27T01:12:53.114Z,10.83
2019-03-27T01:15:41.797Z,12.10
2019-03-27T01:18:23.051Z,11.83
2019-03-27T01:21:03.694Z,11.40
2019-03-27T01:23:45.113Z,10.90
2019-03-27T01:26:25.744Z,11.63
2019-03-27T01:29:06.423Z,11.23
2019-03-27T01:31:47.005Z,11.27
2019-03-27T01:34:28.405Z,11.77
2019-03-27T01:37:09.575Z,11.43
2019-03-27T01:39:50.657Z,10.90
2019-03-27T01:45:23.936Z,12.80
2019-03-27T01:48:04.986Z,11.60
2019-03-27T01:50:46.230Z,10.90
2019-03-27T01:53:27.131Z,10.60
2019-03-27T01:56:08.219Z,10.60
2019-03-27T01:58:49.577Z,11.87
2019-03-27T02:01:31.099Z,12.40
2019-03-27T02:04:12.327Z,12.30
2019-03-27T02:06:53.484Z,10.90
2019-03-27T02:09:34.476Z,10.00
2019-03-27T02:12:15.718Z,10.17
2019-03-27T02:14:56.719Z,11.00
2019-03-27T02:17:37.970Z,11.10
2019-03-27T02:20:19.144Z,11.97
2019-03-27T02:22:59.698Z,11.83
2019-03-27T02:25:40.864Z,12.13
2019-03-27T02:28:22.379Z,12.83
2019-03-27T02:31:03.603Z,12.27
2019-03-27T02:33:44.834Z,12.10
2019-03-27T02:36:26.141Z,10.77
2019-03-27T02:39:07.364Z,12.20
2019-03-27T02:41:48.440Z,11.20
2019-03-27T02:44:29.664Z,10.83
2019-03-27T02:47:10.901Z,10.80
2019-03-27T02:49:51.835Z,13.00
2019-03-27T02:52:32.873Z,13.40
2019-03-27T02:55:13.866Z,10.30
2019-03-27T02:57:55.288Z,10.33
2019-03-27T03:00:36.276Z,12.47
2019-03-27T03:06:18.395Z,11.60
2019-03-27T03:08:59.774Z,13.27
2019-03-27T03:11:40.912Z,12.63
2019-03-27T03:14:22.230Z,12.13
2019-03-27T03:17:03.624Z,13.00
2019-03-27T03:19:44.822Z,11.87
2019-03-27T03:22:25.949Z,12.50
2019-03-27T03:25:06.661Z,11.97
2019-03-27T03:27:47.768Z,12.00
2019-03-27T03:30:28.340Z,11.93
2019-03-27T03:33:08.986Z,11.90
2019-03-27T03:35:50.235Z,11.60
2019-03-27T03:38:31.281Z,12.33
2019-03-27T03:41:12.413Z,12.87
2019-03-27T03:43:53.315Z,12.53
2019-03-27T03:46:34.574Z,12.00
2019-03-27T03:49:15.880Z,14.30
2019-03-27T03:51:57.172Z,12.93
2019-03-27T03:54:38.425Z,12.80
2019-03-27T03:57:19.885Z,12.83
2019-03-27T04:00:01.184Z,12.70
2019-03-27T04:02:42.131Z,13.03
2019-03-27T04:05:22.873Z,14.20
2019-03-27T04:08:04.432Z,12.13
2019-03-27T04:10:45.602Z,13.63
2019-03-27T04:13:26.845Z,13.53
2019-03-27T04:16:07.954Z,11.97
2019-03-27T04:18:49.340Z,11.70
2019-03-27T04:21:30.895Z,12.67
2019-03-27T04:24:12.031Z,12.83
2019-03-27T04:26:53.017Z,12.20
2019-03-27T04:29:33.815Z,11.77
2019-03-27T04:32:14.865Z,12.63
2019-03-27T04:34:56.131Z,13.00
2019-03-27T04:37:37.384Z,13.77
2019-03-27T04:40:19.311Z,11.07
2019-03-27T04:43:00.492Z,13.50
2019-03-27T04:45:41.812Z,10.97
2019-03-27T04:51:05.741Z,12.23
2019-03-27T04:53:47.153Z,12.83
2019-03-27T04:56:28.975Z,12.67
2019-03-27T04:59:10.275Z,14.17
2019-03-27T05:01:51.711Z,13.13
2019-03-27T05:04:33.231Z,13.40
2019-03-27T05:07:14.851Z,12.23
2019-03-27T05:09:56.026Z,14.30
2019-03-27T05:12:38.822Z,13.37
2019-03-27T05:15:19.704Z,12.80
2019-03-27T05:18:01.281Z,12.50
2019-03-27T05:20:42.049Z,13.03
2019-03-27T05:23:23.158Z,12.20
2019-03-27T05:26:03.905Z,13.10
2019-03-27T05:28:45.341Z,11.97
2019-03-27T05:31:26.564Z,13.20
2019-03-27T05:34:07.772Z,13.03
2019-03-27T05:36:49.214Z,13.77
2019-03-27T05:39:30.755Z,14.07
2019-03-27T05:42:12.183Z,12.73
2019-03-27T05:44:53.592Z,12.23
2019-03-27T05:47:34.337Z,12.83
2019-03-27T05:50:14.990Z,13.27
2019-03-27T05:52:56.375Z,14.20
2019-03-27T05:55:37.287Z,13.57
2019-03-27T05:58:18.598Z,12.40
2019-03-27T06:00:59.334Z,14.23
2019-03-27T06:03:40.760Z,13.30
2019-03-27T06:06:21.306Z,14.03
2019-03-27T06:09:01.934Z,15.10
2019-03-27T06:11:43.434Z,14.90
2019-03-27T06:14:24.337Z,15.47
2019-03-27T06:17:05.053Z,14.00
2019-03-27T06:19:46.152Z,15.17
2019-03-27T06:22:16.117Z,14.30
2019-03-27T06:25:04.851Z,15.87
2019-03-27T06:27:53.524Z,14.60
2019-03-27T06:30:42.222Z,14.37
2019-03-27T06:33:31.244Z,17.97
2019-03-27T06:36:19.887Z,13.50
2019-03-27T06:39:08.562Z,16.03
2019-03-27T06:41:57.275Z,17.60
2019-03-27T06:44:46.129Z,18.70
2019-03-27T06:47:34.892Z,16.87
2019-03-27T06:50:23.855Z,18.70
2019-03-27T06:53:12.941Z,19.33
2019-03-27T06:56:02.004Z,18.90
2019-03-27T06:58:54.932Z,18.37
2019-03-27T07:01:41.198Z,16.93
2019-03-27T07:04:29.928Z,18.83
2019-03-27T07:07:18.670Z,18.53
2019-03-27T07:10:07.716Z,19.43
2019-03-27T07:12:56.441Z,17.10
2019-03-27T07:15:45.351Z,17.00
2019-03-27T07:18:43.402Z,19.93
2019-03-27T07:21:37.421Z,20.57
2019-03-27T07:24:18.754Z,17.87
2019-03-27T07:27:00.306Z,17.93
2019-03-27T07:29:41.313Z,18.50
2019-03-27T07:32:22.490Z,22.30
2019-03-27T07:35:03.370Z,18.17
2019-03-27T07:37:44.773Z,17.77
2019-03-27T07:40:25.618Z,19.73
2019-03-27T07:43:07.034Z,21.83
2019-03-27T07:46:04.381Z,17.33
2019-03-27T07:48:31.500Z,19.70
2019-03-27T07:51:12.671Z,19.93
2019-03-27T07:53:53.215Z,20.50
2019-03-27T07:56:34.224Z,22.30
2019-03-27T07:59:18.033Z,20.83
2019-03-27T08:08:08.610Z,22.40
2019-03-27T08:10:50.058Z,21.67
2019-03-27T08:13:31.091Z,18.50
2019-03-27T08:16:12.159Z,21.17
2019-03-27T08:18:52.799Z,21.60
2019-03-27T08:21:33.947Z,18.10
2019-03-27T08:24:15.371Z,18.40
2019-03-27T08:26:56.364Z,19.30
2019-03-27T08:29:37.656Z,17.87
2019-03-27T08:32:18.617Z,16.80
2019-03-27T08:35:00.242Z,17.90
2019-03-27T08:37:41.417Z,17.47
2019-03-27T08:40:22.764Z,17.80
2019-03-27T08:42:52.700Z,17.50
2019-03-27T08:45:41.397Z,16.77
2019-03-27T08:48:30.148Z,12.10
2019-03-27T08:51:18.865Z,11.30
2019-03-27T08:54:07.765Z,11.90
2019-03-27T08:56:56.573Z,14.10
2019-03-27T08:59:45.325Z,12.37
2019-03-27T09:02:34.016Z,12.10
2019-03-27T09:05:22.742Z,14.40
2019-03-27T09:08:11.415Z,16.10
2019-03-27T09:11:00.117Z,16.80
2019-03-27T09:13:48.851Z,17.40
2019-03-27T09:16:30.037Z,17.03
2019-03-27T09:19:11.580Z,21.37
2019-03-27T09:21:52.325Z,18.10
2019-03-27T09:24:33.513Z,15.90
2019-03-27T09:27:14.804Z,16.00
2019-03-27T09:29:56.119Z,14.67
2019-03-27T09:32:37.474Z,13.63
2019-03-27T09:38:27.181Z,13.13
2019-03-27T09:41:07.981Z,10.63
2019-03-27T09:43:48.994Z,10.77
2019-03-27T09:46:18.856Z,10.03
2019-03-27T09:49:07.546Z,10.33
2019-03-27T09:51:56.229Z,11.00
2019-03-27T09:54:44.940Z,12.53
2019-03-27T09:57:33.950Z,10.63
2019-03-27T10:00:41.586Z,4.70
2019-03-27T10:03:30.272Z,8.10
2019-03-27T10:06:19.004Z,8.90
2019-03-27T10:09:08.060Z,7.00
2019-03-27T10:11:56.725Z,6.53
2019-03-27T10:14:47.489Z,7.23
2019-03-27T10:17:28.337Z,7.90
2019-03-27T10:20:09.593Z,6.30
2019-03-27T10:22:50.179Z,5.67
2019-03-27T10:25:31.484Z,5.43
2019-03-27T10:28:12.270Z,6.57
2019-03-27T10:30:53.644Z,5.57
2019-03-27T10:33:35.022Z,4.60
2019-03-27T10:36:16.537Z,5.40
2019-03-27T10:38:57.760Z,6.90
2019-03-27T10:41:38.867Z,5.83
2019-03-27T10:44:19.420Z,6.00
2019-03-27T10:47:00.706Z,6.57
2019-03-27T10:49:41.343Z,5.70
2019-03-27T10:52:22.583Z,5.87
2019-03-27T10:55:03.906Z,8.10
2019-03-27T10:57:44.537Z,7.40
2019-03-27T11:00:24.260Z,7.07
2019-03-27T11:03:12.939Z,8.33
2019-03-27T11:06:01.611Z,8.10
2019-03-27T11:08:50.267Z,8.83
2019-03-27T11:11:38.935Z,8.20
2019-03-27T11:14:37.857Z,8.97
2019-03-27T11:17:10.190Z,10.17
2019-03-27T11:19:51.424Z,12.70
2019-03-27T11:22:32.594Z,11.93
2019-03-27T11:25:13.827Z,12.10
2019-03-27T11:27:55.439Z,11.23
2019-03-27T11:30:36.932Z,12.13
2019-03-27T11:33:18.258Z,9.87
2019-03-27T11:35:59.160Z,11.27
2019-03-27T11:38:39.721Z,10.93
2019-03-27T11:41:20.972Z,10.30
2019-03-27T11:44:01.672Z,10.83
2019-03-27T11:46:43.032Z,11.10
2019-03-27T11:49:23.981Z,11.00
2019-03-27T11:52:05.389Z,9.27
2019-03-27T11:54:46.424Z,12.10
2019-03-27T11:57:26.998Z,11.90
2019-03-27T12:00:08.210Z,10.00
2019-03-27T12:02:49.365Z,12.80
2019-03-27T12:05:30.422Z,11.40
2019-03-27T12:08:11.068Z,12.83
2019-03-27T12:10:51.716Z,11.80
2019-03-27T12:13:32.929Z,12.60
2019-03-27T12:16:14.166Z,10.27
2019-03-27T12:18:55.050Z,13.17
2019-03-27T12:21:36.222Z,11.97
2019-03-27T12:24:17.661Z,18.13
2019-03-27T12:26:59.002Z,13.53
2019-03-27T12:29:40.255Z,13.43
2019-03-27T12:32:24.877Z,14.43
2019-03-27T12:35:04.565Z,11.87
2019-03-27T12:37:45.706Z,11.70
2019-03-27T12:40:27.133Z,13.90
2019-03-27T12:43:07.885Z,13.03
2019-03-27T12:45:49.262Z,13.13
2019-03-27T12:48:30.976Z,13.30
2019-03-27T12:51:13.413Z,14.30
2019-03-27T12:53:54.990Z,11.73
2019-03-27T12:56:36.097Z,12.23
2019-03-27T12:59:17.298Z,11.70
2019-03-27T13:01:58.479Z,13.47
2019-03-27T13:04:39.283Z,13.27
2019-03-27T13:07:20.194Z,12.27
2019-03-27T13:10:01.239Z,11.30
2019-03-27T13:12:42.587Z,12.10
2019-03-27T13:15:23.550Z,10.63
2019-03-27T13:18:04.890Z,9.77
2019-03-27T13:20:46.255Z,11.77
2019-03-27T13:23:27.313Z,11.73
2019-03-27T13:26:08.269Z,10.73
2019-03-27T13:28:49.502Z,10.00
2019-03-27T13:31:30.919Z,9.57
2019-03-27T13:34:12.403Z,9.97
2019-03-27T13:36:53.815Z,9.30
2019-03-27T13:39:35.216Z,10.03
2019-03-27T13:42:16.176Z,9.40
2019-03-27T13:44:57.166Z,10.10
2019-03-27T13:47:38.519Z,8.60
2019-03-27T13:50:19.465Z,10.70
2019-03-27T13:53:00.459Z,8.83
2019-03-27T13:55:41.492Z,8.27
2019-03-27T13:58:22.465Z,11.20
2019-03-27T14:01:03.516Z,9.77
2019-03-27T14:03:44.726Z,9.20
2019-03-27T14:06:29.298Z,10.03
2019-03-27T14:12:02.336Z,8.67
2019-03-27T14:14:51.206Z,9.67
2019-03-27T14:17:39.952Z,9.50
2019-03-27T14:20:21.004Z,12.70
2019-03-27T14:23:02.217Z,11.17
2019-03-27T14:25:43.462Z,10.93
2019-03-27T14:28:24.823Z,12.03
2019-03-27T14:31:05.883Z,10.90
2019-03-27T14:33:47.245Z,11.40
2019-03-27T14:36:28.571Z,11.17
2019-03-27T14:39:09.294Z,11.10
2019-03-27T14:41:50.627Z,9.60
2019-03-27T14:44:31.578Z,9.63
2019-03-27T14:47:15.556Z,10.33
2019-03-27T14:49:57.356Z,10.00
2019-03-27T14:52:38.582Z,8.20
2019-03-27T14:55:48.039Z,9.70
2019-03-27T14:58:36.711Z,10.27
2019-03-27T15:01:25.400Z,8.40
2019-03-27T15:04:14.265Z,7.90
2019-03-27T15:07:02.961Z,9.07
2019-03-27T15:09:51.676Z,7.87
2019-03-27T15:15:36.969Z,8.53
2019-03-27T15:18:25.837Z,7.67
2019-03-27T15:21:06.498Z,10.23
2019-03-27T15:23:47.266Z,6.83
2019-03-27T15:26:29.045Z,8.60
2019-03-27T15:29:10.060Z,8.20
2019-03-27T15:31:52.196Z,8.23
2019-03-27T15:34:33.683Z,6.87
2019-03-27T15:37:14.471Z,6.90
2019-03-27T15:39:54.385Z,8.30
2019-03-27T15:42:43.086Z,6.50
2019-03-27T15:45:34.385Z,9.40
2019-03-27T15:48:23.132Z,7.37
2019-03-27T15:51:11.845Z,9.17
2019-03-27T15:54:00.533Z,7.63
2019-03-27T15:56:49.209Z,8.10
2019-03-27T15:59:37.985Z,9.03
2019-03-27T16:02:26.706Z,8.73
2019-03-27T16:05:15.473Z,9.37
2019-03-27T16:08:04.216Z,8.57
2019-03-27T16:10:53.159Z,8.57
2019-03-27T16:13:41.829Z,8.60
2019-03-27T16:19:07.454Z,9.47
2019-03-27T16:21:49.053Z,8.90
2019-03-27T16:24:30.325Z,10.87
2019-03-27T16:27:11.936Z,8.93
2019-03-27T16:29:53.212Z,8.70
2019-03-27T16:32:34.065Z,9.17
2019-03-27T16:35:15.466Z,9.50
2019-03-27T16:37:56.510Z,9.23
2019-03-27T16:40:37.572Z,10.10
2019-03-27T16:43:18.574Z,9.40
2019-03-27T16:45:59.689Z,9.47
2019-03-27T16:48:40.243Z,11.40
2019-03-27T16:51:21.458Z,10.30
2019-03-27T16:54:02.806Z,10.20
2019-03-27T16:56:44.058Z,9.77
2019-03-27T16:59:25.479Z,10.00
2019-03-27T17:02:06.950Z,9.70
2019-03-27T17:04:48.234Z,8.70
2019-03-27T17:07:29.461Z,9.40
2019-03-27T17:10:10.243Z,10.00
2019-03-27T17:12:51.569Z,9.83
2019-03-27T17:15:32.413Z,8.60
2019-03-27T17:18:13.132Z,8.87
2019-03-27T17:20:54.367Z,9.90
2019-03-27T17:23:35.156Z,9.20
2019-03-27T17:26:17.045Z,9.80
2019-03-27T17:28:47.151Z,10.17
2019-03-27T17:31:35.990Z,9.63
2019-03-27T17:44:13.120Z,10.30
2019-03-27T17:47:01.789Z,10.23
2019-03-27T17:49:31.765Z,8.97
2019-03-27T17:52:20.425Z,10.50
2019-03-27T17:55:09.158Z,10.80
2019-03-27T18:04:07.438Z,11.57
2019-03-27T18:06:56.261Z,11.90
2019-03-27T18:09:45.233Z,11.33
2019-03-27T18:12:33.870Z,10.37
2019-03-27T18:15:22.548Z,9.67
2019-03-27T18:18:11.206Z,8.70
2019-03-27T18:20:52.661Z,10.20
2019-03-27T18:23:22.682Z,12.67
2019-03-27T18:26:11.429Z,11.67
2019-03-27T18:29:00.239Z,10.00
2019-03-27T18:31:48.973Z,9.50
2019-03-27T18:34:37.633Z,8.87
2019-03-27T18:37:26.533Z,10.50
2019-03-27T18:40:15.370Z,9.77
2019-03-27T18:43:04.117Z,11.30
2019-03-27T18:45:52.710Z,8.50
2019-03-27T18:48:41.353Z,10.93
2019-03-27T18:51:30.205Z,11.10
2019-03-27T18:54:19.098Z,11.83
2019-03-27T18:57:07.767Z,10.90
2019-03-27T18:59:56.403Z,11.00
2019-03-27T19:03:05.261Z,10.40
2019-03-27T19:05:54.019Z,11.07
2019-03-27T19:08:42.661Z,11.03
2019-03-27T19:17:35.126Z,11.20
2019-03-27T19:20:16.702Z,10.10
2019-03-27T19:22:57.528Z,10.50
2019-03-27T19:25:27.509Z,12.00
2019-03-27T19:28:16.319Z,11.70
2019-03-27T19:31:05.162Z,10.90
2019-03-27T19:33:53.909Z,10.63
2019-03-27T19:36:42.748Z,10.70
2019-03-27T19:39:31.507Z,11.30
2019-03-27T19:42:20.295Z,9.63
2019-03-27T19:45:09.157Z,9.70
2019-03-27T19:47:57.974Z,10.40
2019-03-27T19:50:46.739Z,11.43
2019-03-27T19:57:05.006Z,11.23
2019-03-27T19:59:35.155Z,12.10
2019-03-27T20:02:23.994Z,12.03
2019-03-27T20:05:13.241Z,12.27
2019-03-27T20:08:02.108Z,13.97
2019-03-27T20:10:50.820Z,13.90
2019-03-27T20:13:39.881Z,12.97
2019-03-27T20:16:21.017Z,13.23
2019-03-27T20:19:02.391Z,12.87
2019-03-27T20:21:42.333Z,14.57
2019-03-27T20:24:40.872Z,13.47
2019-03-27T20:27:22.092Z,13.80
2019-03-27T20:30:11.830Z,14.10
2019-03-27T20:33:00.607Z,15.20
2019-03-27T20:35:49.329Z,13.90
2019-03-27T20:41:53.286Z,14.53
2019-03-27T20:44:50.345Z,16.37
2019-03-27T20:47:39.123Z,15.27
2019-03-27T20:50:27.837Z,15.10
2019-03-27T20:53:16.599Z,17.20
2019-03-27T20:56:05.306Z,17.10
2019-03-27T20:58:54.128Z,14.03
2019-03-27T21:01:42.851Z,16.00
2019-03-27T21:04:31.541Z,15.57
2019-03-27T21:07:20.344Z,17.77
2019-03-27T21:10:09.419Z,15.80
2019-03-27T21:12:58.105Z,15.60
2019-03-27T21:15:39.066Z,15.77
2019-03-27T21:18:20.362Z,18.93
2019-03-27T21:21:01.564Z,15.47
2019-03-27T21:23:42.602Z,17.17
2019-03-27T21:26:23.966Z,17.83
2019-03-27T21:29:05.382Z,17.13
2019-03-27T21:31:35.285Z,16.17
2019-03-27T21:34:24.020Z,16.67
2019-03-27T21:37:12.799Z,14.87
2019-03-27T21:40:01.525Z,13.53
2019-03-27T21:42:50.215Z,16.60
2019-03-27T21:45:59.754Z,13.83
2019-03-27T21:49:14.289Z,16.03
2019-03-27T21:52:03.228Z,14.90
2019-03-27T21:54:52.677Z,15.80
2019-03-27T21:57:41.481Z,17.13
2019-03-27T22:00:48.986Z,15.17
2019-03-27T22:03:37.728Z,17.53
2019-03-27T22:06:26.380Z,16.10
2019-03-27T22:09:34.216Z,15.50
2019-03-27T22:12:22.949Z,14.90
2019-03-27T22:15:04.375Z,17.63
2019-03-27T22:17:45.496Z,15.90
2019-03-27T22:20:26.809Z,16.83
2019-03-27T22:23:08.085Z,17.20
2019-03-27T22:25:49.565Z,15.27
2019-03-27T22:28:30.797Z,14.97
2019-03-27T22:31:11.739Z,17.87
2019-03-27T22:33:52.968Z,19.40
2019-03-27T22:36:33.995Z,17.07
2019-03-27T22:39:45.708Z,16.83
2019-03-27T22:42:34.440Z,17.97
2019-03-27T22:45:26.052Z,16.27
2019-03-27T22:48:14.799Z,17.07
2019-03-27T22:51:03.461Z,17.80
2019-03-27T22:53:52.253Z,17.13
2019-03-27T22:56:41.101Z,18.53
2019-03-27T22:59:29.865Z,18.30
2019-03-27T23:02:18.780Z,17.50
2019-03-27T23:05:07.618Z,18.00
2019-03-27T23:07:56.308Z,15.93
2019-03-27T23:10:44.933Z,18.97
2019-03-27T23:13:14.812Z,18.33
2019-03-27T23:15:56.165Z,18.13
2019-03-27T23:18:37.331Z,18.53
2019-03-27T23:21:18.228Z,14.70
2019-03-27T23:23:58.800Z,14.40
2019-03-27T23:26:39.422Z,17.50
2019-03-27T23:29:20.690Z,16.03
2019-03-27T23:32:01.855Z,15.20
2019-03-27T23:34:42.527Z,16.13
2019-03-27T23:37:23.860Z,15.60
2019-03-27T23:40:04.951Z,16.83
2019-03-27T23:42:46.194Z,16.90
2019-03-27T23:45:26.932Z,16.23
2019-03-27T23:48:08.116Z,15.63
2019-03-27T23:50:49.136Z,16.57
2019-03-27T23:53:30.232Z,16.50
2019-03-27T23:56:00.846Z,18.10
2019-03-27T23:58:49.736Z,16.20
